Time;durP1;ratioP1;P1;durP2;ratioP2;P2;SDS_P1;SDS_P2;PMS_P1;PMS_P2;Temp;Humidity;BMP_temperature;BMP_pressure;BME280_temperature;BME280_humidity;BME280_pressure;Samples;Min_cycle;Max_cycle;Signal;HPM_P1;HPM_P2
2022/07/11 00:02:01;;;;;;;1.17;0.50;;;;;;;17.46;48.96;100492.78;5051299;28;20037;-70
2022/07/11 00:04:28;;;;;;;1.05;0.40;;;;;;;17.39;49.28;100494.47;5051169;28;20021;-71
2022/07/11 00:06:53;;;;;;;2.60;0.52;;;;;;;17.26;49.43;100493.31;5051401;28;20025;-71
2022/07/11 00:09:19;;;;;;;2.75;0.60;;;;;;;17.18;49.70;100486.03;5051212;28;20146;-70
2022/07/11 00:11:44;;;;;;;1.27;0.40;;;;;;;17.14;49.96;100495.53;5051046;28;20037;-70
2022/07/11 00:14:10;;;;;;;2.15;0.73;;;;;;;17.02;50.25;100486.06;5050985;28;20554;-71
2022/07/11 00:16:35;;;;;;;1.92;0.60;;;;;;;16.95;50.27;100486.91;5051106;28;20510;-71
2022/07/11 00:19:01;;;;;;;2.58;0.50;;;;;;;16.98;50.61;100500.13;5050998;28;20693;-71
2022/07/11 00:21:26;;;;;;;3.75;0.65;;;;;;;16.90;50.85;100487.41;5050848;28;20036;-70
2022/07/11 00:23:52;;;;;;;1.75;0.60;;;;;;;16.82;50.78;100490.16;5051213;28;20111;-71
2022/07/11 00:26:17;;;;;;;0.52;0.50;;;;;;;16.82;51.02;100501.00;5049728;28;20133;-71
2022/07/11 00:28:42;;;;;;;1.73;0.38;;;;;;;16.71;51.38;100484.22;5050695;28;20018;-71
2022/07/11 00:31:08;;;;;;;0.68;0.47;;;;;;;16.74;51.34;100492.03;5050633;28;20082;-70
2022/07/11 00:33:34;;;;;;;1.23;0.40;;;;;;;16.60;51.53;100479.16;5049338;28;20036;-72
2022/07/11 00:35:59;;;;;;;0.40;0.40;;;;;;;16.44;51.85;100465.63;5049180;28;20036;-70
2022/07/11 00:38:24;;;;;;;2.63;0.60;;;;;;;16.49;51.74;100479.47;5049347;28;20472;-70
2022/07/11 00:40:50;;;;;;;1.25;0.50;;;;;;;16.46;52.04;100485.22;5050434;28;20048;-70
2022/07/11 00:43:19;;;;;;;1.05;0.50;;;;;;;16.27;52.19;100471.97;5050510;28;20033;-71
2022/07/11 00:45:47;;;;;;;1.35;0.80;;;;;;;16.39;52.70;100486.88;5050306;28;20090;-70
2022/07/11 00:48:13;;;;;;;2.30;0.68;;;;;;;16.39;52.62;100495.00;5050269;28;20033;-70
2022/07/11 00:50:38;;;;;;;1.23;0.52;;;;;;;16.39;52.63;100492.31;5050395;28;20056;-70
2022/07/11 00:53:04;;;;;;;3.00;0.50;;;;;;;16.39;52.73;100486.88;5050246;28;20116;-71
2022/07/11 00:55:30;;;;;;;2.83;0.60;;;;;;;16.41;52.50;100493.81;5050276;28;20052;-71
2022/07/11 00:57:56;;;;;;;2.22;0.82;;;;;;;16.37;52.67;100503.31;5049934;28;20045;-71
2022/07/11 01:00:21;;;;;;;1.27;0.55;;;;;;;16.41;52.57;100506.53;5050374;28;20072;-71
2022/07/11 01:02:47;;;;;;;3.88;1.23;;;;;;;16.34;52.85;100503.63;5050123;28;20396;-71
2022/07/11 01:05:12;;;;;;;1.95;0.60;;;;;;;16.23;53.03;100479.59;5048706;28;20387;-71
2022/07/11 01:07:38;;;;;;;1.30;0.50;;;;;;;16.25;52.80;100485.69;5050097;28;20053;-72
2022/07/11 01:10:04;;;;;;;0.85;0.52;;;;;;;16.32;52.86;100502.13;5050203;28;20400;-71
2022/07/11 01:12:31;;;;;;;1.50;0.43;;;;;;;16.31;53.15;100508.56;5050179;28;20111;-71
2022/07/11 01:14:57;;;;;;;3.25;0.63;;;;;;;16.27;53.14;100508.03;5049811;28;20067;-70
2022/07/11 01:17:23;;;;;;;2.80;0.88;;;;;;;16.14;53.40;100504.94;5049918;28;20094;-71
2022/07/11 01:19:49;;;;;;;2.92;0.60;;;;;;;16.10;53.56;100497.31;5049969;28;20124;-72
2022/07/11 01:22:20;;;;;;;4.00;0.55;;;;;;;16.09;53.91;100510.00;5049931;28;20163;-71
2022/07/11 01:24:46;;;;;;;2.60;0.60;;;;;;;16.02;54.16;100508.97;5049607;28;20037;-70
2022/07/11 01:27:12;;;;;;;2.70;0.60;;;;;;;16.01;54.15;100512.69;5049898;28;20031;-71
2022/07/11 01:29:39;;;;;;;1.50;0.73;;;;;;;15.99;54.49;100509.28;5049691;28;20035;-70
2022/07/11 01:32:06;;;;;;;2.67;0.85;;;;;;;15.99;54.26;100513.88;5049718;28;20033;-71
2022/07/11 01:34:32;;;;;;;1.98;0.63;;;;;;;15.95;54.46;100507.94;5048994;28;20083;-71
2022/07/11 01:36:57;;;;;;;0.95;0.73;;;;;;;15.93;54.87;100516.22;5049697;28;20025;-71
2022/07/11 01:39:23;;;;;;;3.15;0.80;;;;;;;15.87;55.15;100513.34;5048545;28;20108;-70
2022/07/11 01:41:48;;;;;;;1.60;0.70;;;;;;;15.81;55.12;100505.88;5048335;28;20553;-71
2022/07/11 01:44:14;;;;;;;0.80;0.50;;;;;;;15.72;55.28;100505.00;5049586;28;20048;-70
2022/07/11 01:46:39;;;;;;;3.53;0.95;;;;;;;15.75;55.26;100515.50;5049443;28;20036;-70
2022/07/11 01:49:05;;;;;;;1.25;0.50;;;;;;;15.74;55.79;100516.47;5049565;28;20033;-71
2022/07/11 01:51:31;;;;;;;1.23;0.57;;;;;;;15.67;55.62;100507.31;5049678;28;20408;-71
2022/07/11 01:53:57;;;;;;;3.72;0.73;;;;;;;15.65;55.73;100519.31;5048633;28;20048;-71
2022/07/11 01:56:23;;;;;;;2.58;0.60;;;;;;;15.54;55.85;100504.22;5049576;28;20399;-71
2022/07/11 01:58:49;;;;;;;2.92;0.50;;;;;;;15.51;56.01;100509.94;5049396;28;20104;-71
2022/07/11 02:01:15;;;;;;;2.17;0.70;;;;;;;15.48;56.11;100512.97;5049491;28;20041;-71
2022/07/11 02:03:41;;;;;;;2.35;0.60;;;;;;;15.49;56.42;100511.13;5049387;28;20024;-69
2022/07/11 02:06:06;;;;;;;1.90;0.45;;;;;;;15.43;56.53;100520.75;5048202;28;20029;-71
2022/07/11 02:08:32;;;;;;;0.77;0.55;;;;;;;15.35;56.98;100511.72;5049552;28;20547;-70
2022/07/11 02:10:57;;;;;;;1.38;0.60;;;;;;;15.32;56.90;100520.97;5049805;28;20040;-71
2022/07/11 02:13:23;;;;;;;1.70;0.70;;;;;;;15.13;57.34;100504.97;5049708;28;20033;-70
2022/07/11 02:15:50;;;;;;;1.88;0.90;;;;;;;15.20;57.58;100522.25;5049367;28;20037;-70
2022/07/11 02:18:17;;;;;;;4.22;0.88;;;;;;;15.14;57.86;100517.47;5049309;28;20345;-70
2022/07/11 02:20:48;;;;;;;5.38;0.60;;;;;;;15.08;58.01;100510.00;5047832;28;20035;-71
2022/07/11 02:23:14;;;;;;;5.38;0.70;;;;;;;15.06;58.04;100522.00;5049199;28;20040;-71
2022/07/11 02:25:40;;;;;;;5.07;0.77;;;;;;;14.89;58.65;100512.06;5049289;28;20037;-71
2022/07/11 02:28:09;;;;;;;2.30;0.50;;;;;;;14.88;59.07;100527.44;5049178;28;20055;-71
2022/07/11 02:30:35;;;;;;;0.80;0.57;;;;;;;14.84;59.27;100526.06;5049196;28;20049;-71
2022/07/11 02:33:01;;;;;;;2.35;0.80;;;;;;;14.79;59.57;100519.41;5049069;28;20360;-70
2022/07/11 02:35:26;;;;;;;1.70;0.65;;;;;;;14.73;59.89;100523.59;5049364;28;20032;-70
2022/07/11 02:37:52;;;;;;;2.55;0.80;;;;;;;14.73;59.98;100536.22;5049245;28;20478;-71
2022/07/11 02:40:18;;;;;;;3.30;0.80;;;;;;;14.62;60.71;100529.22;5049320;28;20111;-70
2022/07/11 02:42:43;;;;;;;2.95;0.80;;;;;;;14.62;60.95;100537.34;5049254;28;20151;-71
2022/07/11 02:45:10;;;;;;;4.47;1.10;;;;;;;14.50;61.32;100524.22;5050848;28;20048;-69
2022/07/11 02:47:38;;;;;;;4.10;0.80;;;;;;;14.50;61.47;100532.31;5052647;28;20147;-71
2022/07/11 02:50:06;;;;;;;4.50;0.82;;;;;;;14.46;61.51;100525.53;5051033;28;20036;-70
2022/07/11 02:52:31;;;;;;;1.30;0.70;;;;;;;14.54;61.47;100537.25;5052638;28;20029;-70
2022/07/11 02:54:57;;;;;;;5.50;0.85;;;;;;;14.44;61.89;100525.69;5052834;28;20070;-70
2022/07/11 02:57:22;;;;;;;6.07;1.05;;;;;;;14.50;61.71;100538.56;5052287;28;20075;-70
2022/07/11 02:59:47;;;;;;;1.77;0.75;;;;;;;14.46;61.85;100531.78;5051099;28;20634;-70
2022/07/11 03:02:13;;;;;;;5.18;1.10;;;;;;;14.38;62.12;100529.00;5052371;28;20434;-71
2022/07/11 03:04:39;;;;;;;3.58;0.88;;;;;;;14.47;61.86;100544.25;5052339;28;20128;-70
2022/07/11 03:07:05;;;;;;;1.00;0.75;;;;;;;14.46;62.52;100542.56;5052362;28;20373;-68
2022/07/11 03:09:30;;;;;;;3.35;0.95;;;;;;;14.40;62.64;100535.09;5052228;28;20033;-70
2022/07/11 03:11:56;;;;;;;1.95;0.70;;;;;;;14.44;62.68;100546.44;5052361;28;20043;-71
2022/07/11 03:14:21;;;;;;;2.72;0.63;;;;;;;14.47;62.59;100546.97;5052189;28;20027;-70
2022/07/11 03:16:47;;;;;;;1.52;0.70;;;;;;;14.39;63.01;100541.50;5052082;28;20024;-71
2022/07/11 03:19:12;;;;;;;2.53;0.80;;;;;;;14.39;62.55;100541.50;5050830;28;20017;-69
2022/07/11 03:21:37;;;;;;;1.88;0.60;;;;;;;14.40;63.16;100555.81;5052130;28;20021;-70
2022/07/11 03:24:03;;;;;;;3.25;0.93;;;;;;;14.35;62.75;100550.06;5052120;28;20029;-69
2022/07/11 03:26:29;;;;;;;2.00;1.10;;;;;;;14.19;63.13;100539.88;5052067;28;20037;-70
2022/07/11 03:28:54;;;;;;;2.05;0.65;;;;;;;14.33;62.96;100561.00;5051983;28;20522;-70
2022/07/11 03:31:19;;;;;;;1.38;0.70;;;;;;;14.27;63.67;100558.91;5052149;28;20021;-71
2022/07/11 03:33:45;;;;;;;3.15;0.95;;;;;;;14.17;63.88;100547.28;5052051;28;20060;-70
2022/07/11 03:36:10;;;;;;;3.47;0.98;;;;;;;14.06;64.32;100544.78;5051936;28;20074;-70
2022/07/11 03:38:37;;;;;;;3.00;0.90;;;;;;;13.96;63.91;100527.81;5051919;28;20017;-70
2022/07/11 03:41:03;;;;;;;2.13;1.00;;;;;;;14.13;64.21;100564.78;5051875;28;20043;-71
2022/07/11 03:43:29;;;;;;;6.82;1.10;;;;;;;14.01;64.62;100547.13;5051855;28;20458;-70
2022/07/11 03:45:55;;;;;;;6.07;1.15;;;;;;;14.01;65.60;100565.13;5044503;28;20150;-69
2022/07/11 03:48:21;;;;;;;6.50;1.42;;;;;;;13.94;65.59;100556.81;5051528;28;20395;-70
2022/07/11 03:50:47;;;;;;;7.47;1.30;;;;;;;13.93;65.58;100560.47;5051588;28;20029;-70
2022/07/11 03:53:13;;;;;;;3.22;1.20;;;;;;;13.97;65.78;100563.75;5051491;28;20073;-70
2022/07/11 03:55:39;;;;;;;7.32;1.38;;;;;;;13.98;65.93;100563.59;5051166;28;20451;-71
2022/07/11 03:58:05;;;;;;;8.70;1.80;;;;;;;13.98;65.84;100568.13;5049921;28;20443;-70
2022/07/11 04:00:31;;;;;;;3.25;1.05;;;;;;;14.00;65.30;100561.59;5050212;28;20079;-71
2022/07/11 04:02:57;;;;;;;1.63;1.10;;;;;;;14.06;65.38;100574.47;5051395;28;20461;-70
2022/07/11 04:05:23;;;;;;;4.70;1.75;;;;;;;14.09;65.39;100582.25;5024790;28;20037;-70
2022/07/11 04:07:49;;;;;;;2.95;0.95;;;;;;;14.06;65.67;100581.72;5020539;28;20033;-70
2022/07/11 04:10:17;;;;;;;9.13;1.30;;;;;;;14.03;66.20;100577.50;5020608;28;20079;-70
2022/07/11 04:12:44;;;;;;;9.68;1.80;;;;;;;14.22;66.31;100587.31;5021929;28;20049;-71
2022/07/11 04:15:11;;;;;;;6.70;1.38;;;;;;;14.42;64.96;100576.28;5020442;28;20079;-71
2022/07/11 04:17:37;;;;;;;10.00;1.42;;;;;;;14.56;64.52;100575.75;5019711;28;20405;-70
2022/07/11 04:20:03;;;;;;;6.43;1.20;;;;;;;14.72;64.42;100575.91;5021222;28;20093;-69
2022/07/11 04:22:29;;;;;;;7.13;1.75;;;;;;;14.71;63.96;100558.00;5021612;28;20760;-70
2022/07/11 04:24:54;;;;;;;7.70;1.23;;;;;;;14.94;63.86;100574.56;5019610;28;20029;-70
2022/07/11 04:27:20;;;;;;;7.53;1.20;;;;;;;15.06;63.47;100576.03;5021228;28;20029;-71
2022/07/11 04:29:45;;;;;;;6.38;1.48;;;;;;;15.25;63.16;100584.75;5029183;28;20041;-70
2022/07/11 04:32:11;;;;;;;4.10;1.00;;;;;;;15.37;62.75;100575.44;5031189;28;20025;-70
2022/07/11 04:34:36;;;;;;;6.00;1.23;;;;;;;15.56;62.27;100590.59;5031142;28;20028;-70
2022/07/11 04:37:02;;;;;;;5.50;1.33;;;;;;;15.64;62.03;100586.06;5030884;28;20056;-70
2022/07/11 04:39:27;;;;;;;7.47;1.27;;;;;;;15.81;61.80;100578.91;5030653;28;20029;-71
2022/07/11 04:41:53;;;;;;;4.95;0.95;;;;;;;16.09;60.48;100591.19;5030874;28;20392;-71
2022/07/11 04:44:18;;;;;;;3.95;1.10;;;;;;;16.08;60.03;100566.97;5031836;28;20083;-71
2022/07/11 04:46:44;;;;;;;1.90;0.70;;;;;;;16.32;59.64;100591.44;5049340;28;20108;-70
2022/07/11 04:49:09;;;;;;;4.25;0.90;;;;;;;16.44;59.27;100587.47;5037358;28;20087;-71
2022/07/11 04:51:36;;;;;;;9.13;1.25;;;;;;;16.67;58.88;100602.88;5019483;28;20084;-70
2022/07/11 04:54:02;;;;;;;8.15;1.48;;;;;;;16.77;58.54;100602.75;5021608;28;20038;-71
2022/07/11 04:56:27;;;;;;;4.65;0.85;;;;;;;16.93;57.71;100597.34;5018416;28;20033;-71
2022/07/11 04:58:53;;;;;;;4.85;1.17;;;;;;;16.99;57.75;100589.38;5017909;28;20102;-70
2022/07/11 05:01:18;;;;;;;3.58;0.88;;;;;;;17.32;56.90;100599.19;5021972;28;20332;-69
2022/07/11 05:03:45;;;;;;;5.25;1.50;;;;;;;17.42;56.91;100601.72;5019548;28;20025;-70
2022/07/11 05:06:10;;;;;;;3.03;1.77;;;;;;;17.57;56.74;100603.59;5020479;28;20037;-70
2022/07/11 05:08:36;;;;;;;4.43;1.30;;;;;;;17.74;55.82;100599.81;5017908;28;20389;-70
2022/07/11 05:11:04;;;;;;;8.43;2.03;;;;;;;17.82;54.47;100577.25;5020793;28;20411;-69
2022/07/11 05:13:31;;;;;;;6.55;1.45;;;;;;;18.19;54.37;100599.19;5019309;28;20072;-70
2022/07/11 05:15:56;;;;;;;7.20;1.33;;;;;;;18.35;53.36;100596.38;5012970;28;20041;-67
2022/07/11 05:18:22;;;;;;;9.50;1.42;;;;;;;18.50;53.40;100583.75;5020468;28;20033;-68
2022/07/11 05:20:48;;;;;;;7.15;1.70;;;;;;;18.83;52.23;100592.53;5029975;28;20484;-68
2022/07/11 05:23:14;;;;;;;3.10;1.00;;;;;;;18.81;51.97;100584.56;5029987;28;20033;-68
2022/07/11 05:25:40;;;;;;;2.83;0.70;;;;;;;18.94;51.82;100595.69;5028741;28;20045;-67
2022/07/11 05:28:06;;;;;;;5.57;1.33;;;;;;;18.92;51.41;100573.25;5029822;28;20029;-68
2022/07/11 05:30:31;;;;;;;5.88;1.05;;;;;;;19.23;50.64;100584.06;5027631;28;20068;-68
2022/07/11 05:32:57;;;;;;;3.38;0.82;;;;;;;19.35;50.30;100588.06;5014014;28;20492;-68
2022/07/11 05:35:22;;;;;;;6.32;0.93;;;;;;;19.54;50.34;100592.97;5010155;28;20040;-67
2022/07/11 05:37:48;;;;;;;3.17;0.95;;;;;;;19.69;49.48;100600.13;5010016;28;20030;-67
2022/07/11 05:40:13;;;;;;;4.60;1.27;;;;;;;19.73;49.47;100601.44;5010276;28;20708;-67
2022/07/11 05:42:39;;;;;;;5.05;1.15;;;;;;;19.92;49.06;100606.31;5020740;28;20053;-68
2022/07/11 05:45:04;;;;;;;5.88;1.20;;;;;;;19.99;48.95;100599.09;5029833;28;20543;-67
2022/07/11 05:47:30;;;;;;;9.27;1.30;;;;;;;20.18;47.96;100595.81;5029595;28;20392;-67
2022/07/11 05:49:55;;;;;;;2.90;0.80;;;;;;;20.28;47.46;100603.69;5028706;28;20381;-68
2022/07/11 05:52:21;;;;;;;5.85;1.15;;;;;;;20.30;47.88;100603.50;5013604;28;20507;-67
2022/07/11 05:54:46;;;;;;;4.30;1.10;;;;;;;20.39;47.76;100605.94;5009797;28;20034;-68
2022/07/11 05:57:12;;;;;;;4.28;1.10;;;;;;;20.55;47.47;100610.31;5009525;28;20354;-67
2022/07/11 05:59:38;;;;;;;7.18;1.20;;;;;;;20.76;46.87;100618.56;5009710;28;20469;-68
2022/07/11 06:02:04;;;;;;;3.92;1.23;;;;;;;20.97;46.04;100611.25;5009814;28;20073;-67
2022/07/11 06:04:29;;;;;;;6.82;1.20;;;;;;;20.97;45.28;100597.63;5015048;28;20046;-67
2022/07/11 06:06:55;;;;;;;4.70;0.90;;;;;;;21.05;45.76;100624.75;5015131;28;20742;-67
2022/07/11 06:09:20;;;;;;;2.78;1.00;;;;;;;21.23;45.01;100614.25;5009706;28;20038;-68
2022/07/11 06:11:46;;;;;;;5.20;1.08;;;;;;;21.20;45.44;100606.44;5009615;28;20034;-68
2022/07/11 06:14:11;;;;;;;2.63;1.00;;;;;;;21.28;44.80;100611.75;5009723;28;20092;-69
2022/07/11 06:16:37;;;;;;;6.18;1.08;;;;;;;21.30;44.68;100614.28;5009932;28;20073;-69
2022/07/11 06:19:02;;;;;;;4.65;1.00;;;;;;;21.36;44.26;100613.50;5009480;28;20384;-68
2022/07/11 06:21:28;;;;;;;2.67;1.00;;;;;;;21.43;44.12;100612.53;5050733;28;20029;-67
2022/07/11 06:23:54;;;;;;;4.32;1.45;;;;;;;21.53;43.98;100623.09;5053053;28;20557;-68
2022/07/11 06:26:20;;;;;;;5.15;1.27;;;;;;;21.58;44.39;100621.47;5053042;28;20381;-67
2022/07/11 06:28:46;;;;;;;6.78;1.25;;;;;;;21.67;44.02;100620.25;5051210;28;20029;-67
2022/07/11 06:31:12;;;;;;;8.20;1.50;;;;;;;21.76;43.68;100610.06;5037269;28;20029;-67
2022/07/11 06:33:39;;;;;;;5.18;0.80;;;;;;;21.96;43.12;100613.78;5032316;28;20388;-68
2022/07/11 06:36:05;;;;;;;4.65;1.20;;;;;;;21.98;43.45;100615.28;5032931;28;20480;-69
2022/07/11 06:38:31;;;;;;;9.15;1.58;;;;;;;22.12;42.60;100625.22;5032839;28;20033;-68
2022/07/11 06:40:57;;;;;;;3.33;0.73;;;;;;;22.04;42.40;100602.69;5032854;28;20033;-67
2022/07/11 06:43:22;;;;;;;4.32;1.10;;;;;;;22.26;42.00;100632.47;5032849;28;20743;-67
2022/07/11 06:45:48;;;;;;;4.75;0.70;;;;;;;22.31;41.74;100629.97;5032670;28;20481;-68
2022/07/11 06:48:14;;;;;;;4.95;1.42;;;;;;;22.38;41.60;100629.16;5032806;28;20117;-68
2022/07/11 06:50:40;;;;;;;3.92;0.98;;;;;;;22.50;41.69;100627.56;5032713;28;20091;-67
2022/07/11 06:53:06;;;;;;;2.50;0.88;;;;;;;22.56;41.08;100627.56;5032998;28;20041;-67
2022/07/11 06:55:33;;;;;;;13.57;2.10;;;;;;;22.69;41.31;100627.63;5032644;28;20025;-68
2022/07/11 06:57:59;;;;;;;4.85;0.90;;;;;;;22.81;41.08;100625.13;5032381;28;20140;-69
2022/07/11 07:00:25;;;;;;;4.07;1.00;;;;;;;22.99;39.96;100628.97;5030750;28;20033;-71
2022/07/11 07:02:51;;;;;;;6.80;1.00;;;;;;;23.03;40.21;100621.19;5031317;28;20029;-70
2022/07/11 07:05:16;;;;;;;2.80;0.80;;;;;;;23.16;39.47;100626.69;5037254;28;20383;-70
2022/07/11 07:07:42;;;;;;;2.92;1.00;;;;;;;23.13;39.64;100617.00;5050750;28;20391;-71
2022/07/11 07:10:08;;;;;;;4.75;1.20;;;;;;;23.19;39.81;100618.91;5051449;28;20021;-71
2022/07/11 07:12:39;;;;;;;5.43;1.25;;;;;;;23.15;39.59;100612.16;5052394;28;20131;-70
2022/07/11 07:15:05;;;;;;;10.90;1.60;;;;;;;23.31;39.27;100625.47;5052147;28;20116;-71
2022/07/11 07:17:31;;;;;;;2.30;0.70;;;;;;;23.35;39.36;100624.03;5051781;28;20123;-71
2022/07/11 07:19:57;;;;;;;4.63;0.80;;;;;;;23.42;39.18;100624.88;5051684;28;20214;-69
2022/07/11 07:22:22;;;;;;;2.42;0.82;;;;;;;23.58;38.69;100621.72;5051937;28;20029;-71
2022/07/11 07:24:47;;;;;;;2.97;0.90;;;;;;;23.63;38.57;100619.16;5051896;28;20658;-71
2022/07/11 07:27:14;;;;;;;2.13;0.88;;;;;;;23.63;38.47;100618.34;5051990;28;20017;-71
2022/07/11 07:29:39;;;;;;;1.65;0.85;;;;;;;23.65;38.08;100618.94;5050200;28;20025;-71
2022/07/11 07:32:06;;;;;;;2.42;0.68;;;;;;;23.66;38.08;100621.47;5031112;28;20049;-70
2022/07/11 07:34:32;;;;;;;3.13;0.70;;;;;;;23.68;37.90;100627.59;5031616;28;20104;-70
2022/07/11 07:36:58;;;;;;;3.60;0.93;;;;;;;23.62;38.07;100630.31;5031840;28;20101;-71
2022/07/11 07:39:24;;;;;;;1.90;0.75;;;;;;;23.59;37.70;100619.78;5031935;28;20516;-71
2022/07/11 07:41:49;;;;;;;2.75;0.65;;;;;;;23.62;37.99;100619.38;5031685;28;20128;-71
2022/07/11 07:44:14;;;;;;;3.67;1.00;;;;;;;23.67;38.45;100627.81;5031579;28;20021;-71
2022/07/11 07:46:40;;;;;;;4.03;0.85;;;;;;;23.76;38.03;100621.06;5031799;28;20134;-71
2022/07/11 07:49:05;;;;;;;2.70;1.05;;;;;;;23.80;37.82;100609.44;5031306;28;20323;-71
2022/07/11 07:51:31;;;;;;;4.35;0.90;;;;;;;23.80;37.85;100603.13;5029873;28;20403;-71
2022/07/11 07:53:56;;;;;;;2.15;0.98;;;;;;;23.94;37.69;100611.16;5031335;28;20048;-70
2022/07/11 07:56:22;;;;;;;5.18;0.93;;;;;;;24.02;37.64;100615.56;5031260;28;20038;-71
2022/07/11 07:58:47;;;;;;;4.75;1.30;;;;;;;24.10;37.59;100616.19;5030842;28;20041;-70
2022/07/11 08:03:57;;;;;;;4.07;1.05;;;;;;;24.21;37.02;100611.91;5031139;28;20041;-71
2022/07/11 08:06:22;;;;;;;6.25;1.27;;;;;;;24.29;36.58;100619.91;5031056;28;20038;-71
2022/07/11 08:08:49;;;;;;;4.78;0.95;;;;;;;24.22;36.93;100606.22;5029529;28;20029;-70
2022/07/11 08:11:15;;;;;;;4.13;0.73;;;;;;;24.25;36.72;100611.28;5030973;28;20129;-71
2022/07/11 08:13:41;;;;;;;2.05;1.10;;;;;;;24.13;36.69;100591.09;5030849;28;20036;-70
2022/07/11 08:16:06;;;;;;;1.75;0.60;;;;;;;24.01;37.13;100587.31;5030962;28;20036;-71
2022/07/11 08:18:33;;;;;;;3.00;0.90;;;;;;;24.03;37.06;100592.59;5030752;28;20032;-70
2022/07/11 08:20:58;;;;;;;1.83;1.02;;;;;;;24.17;37.12;100608.78;5030847;28;20424;-70
2022/07/11 08:23:24;;;;;;;1.63;0.75;;;;;;;24.27;36.34;100605.56;5031092;28;20025;-70
2022/07/11 08:25:49;;;;;;;1.85;0.63;;;;;;;24.30;36.07;100599.66;5031104;28;20037;-70
2022/07/11 08:28:15;;;;;;;2.75;0.70;;;;;;;24.41;36.06;100605.31;5030883;28;20041;-70
2022/07/11 08:30:40;;;;;;;4.72;0.82;;;;;;;24.43;35.92;100600.47;5029003;28;20120;-71
2022/07/11 08:33:06;;;;;;;4.20;0.82;;;;;;;24.44;36.36;100598.56;5030889;28;20025;-71
2022/07/11 08:35:31;;;;;;;1.48;0.73;;;;;;;24.47;36.40;100605.50;5030537;28;20041;-71
2022/07/11 08:37:56;;;;;;;1.88;0.75;;;;;;;24.48;36.15;100597.88;5030654;28;20028;-71
2022/07/11 08:40:22;;;;;;;5.20;1.02;;;;;;;24.50;36.42;100594.09;5029131;28;20397;-70
2022/07/11 08:42:48;;;;;;;4.50;0.98;;;;;;;24.62;35.34;100595.06;5030343;28;20040;-70
2022/07/11 08:45:15;;;;;;;4.03;0.80;;;;;;;24.58;35.34;100588.34;5030296;28;20163;-71
2022/07/11 08:47:41;;;;;;;2.97;0.70;;;;;;;24.63;35.25;100586.63;5030265;28;20033;-70
2022/07/11 08:50:09;;;;;;;2.95;1.00;;;;;;;24.73;34.91;100588.94;5030291;28;20464;-70
2022/07/11 08:52:34;;;;;;;1.70;0.73;;;;;;;24.65;35.20;100561.75;5030175;28;20033;-70
2022/07/11 08:55:00;;;;;;;2.88;0.90;;;;;;;24.76;34.91;100583.84;5030185;28;20034;-70
2022/07/11 08:57:25;;;;;;;3.00;0.80;;;;;;;24.77;34.85;100585.56;5029899;28;20077;-70
2022/07/11 08:59:55;;;;;;;3.90;0.90;;;;;;;24.68;34.38;100588.75;5029880;28;20059;-72
2022/07/11 09:02:21;;;;;;;3.13;0.77;;;;;;;24.55;34.74;100584.16;5028743;28;20033;-71
2022/07/11 09:04:47;;;;;;;5.00;0.70;;;;;;;24.41;34.46;100588.03;5029889;28;20061;-70
2022/07/11 09:07:13;;;;;;;0.77;0.50;;;;;;;24.35;34.25;100584.22;5030010;28;20079;-71
2022/07/11 09:09:38;;;;;;;1.85;0.75;;;;;;;24.21;34.62;100581.75;5028589;28;20036;-71
2022/07/11 09:12:14;;;;;;;3.17;0.63;;;;;;;24.24;34.20;100576.69;5030023;28;20045;-70
2022/07/11 09:14:45;;;;;;;1.27;0.60;;;;;;;24.36;34.06;100585.94;5029675;28;20385;-70
2022/07/11 09:17:10;;;;;;;0.88;0.65;;;;;;;24.36;33.91;100579.59;5029826;28;20528;-70
2022/07/11 09:19:39;;;;;;;1.23;0.50;;;;;;;24.48;33.66;100575.94;5029950;28;20024;-70
2022/07/11 09:28:07;;;;;;;2.85;0.65;;;;;;;24.67;32.09;100560.50;5029764;28;20060;-70
2022/07/11 09:30:35;;;;;;;9.40;1.08;;;;;;;24.62;32.79;100581.38;5029371;28;20025;-71
2022/07/11 09:33:06;;;;;;;2.63;0.52;;;;;;;24.55;33.06;100577.81;5028252;28;20053;-71
2022/07/11 09:35:34;;;;;;;3.53;0.68;;;;;;;24.43;33.26;100561.22;5029521;28;20111;-71
2022/07/11 09:38:05;;;;;;;5.57;1.10;;;;;;;24.48;32.97;100571.53;5029701;28;20694;-71
2022/07/11 09:40:30;;;;;;;2.92;0.60;;;;;;;24.47;32.30;100572.59;5029577;28;20025;-72
2022/07/11 09:42:58;;;;;;;1.70;0.50;;;;;;;24.31;32.78;100568.44;5029594;28;20499;-70
2022/07/11 09:45:29;;;;;;;2.45;0.60;;;;;;;24.30;32.71;100570.34;5029455;28;20104;-70
2022/07/11 09:48:00;;;;;;;1.30;0.50;;;;;;;24.33;32.68;100569.91;5029481;28;20040;-70
2022/07/11 09:50:30;;;;;;;3.30;0.82;;;;;;;24.38;32.76;100567.34;5029363;28;20022;-70
2022/07/11 09:53:05;;;;;;;5.68;0.73;;;;;;;24.48;32.83;100561.41;5029602;28;20380;-70
2022/07/11 09:55:35;;;;;;;1.77;0.65;;;;;;;24.56;32.73;100550.16;5032062;28;20029;-71
2022/07/11 09:58:09;;;;;;;3.65;0.70;;;;;;;24.71;32.37;100549.91;5031757;28;20049;-70
2022/07/11 10:00:35;;;;;;;;;;;;;;;24.77;32.37;100541.66;5033016;28;20512;-70
2022/07/11 10:03:01;;;;;;;1.90;0.50;;;;;;;24.83;32.30;100539.91;5032834;28;19917;-70
2022/07/11 10:05:27;;;;;;;6.40;0.90;;;;;;;24.86;32.14;100547.72;5032783;28;20033;-71
2022/07/11 10:07:53;;;;;;;6.28;0.88;;;;;;;24.86;31.82;100542.22;5032500;28;20116;-70
2022/07/11 10:10:18;;;;;;;1.13;0.45;;;;;;;25.02;31.32;100553.50;5032925;28;20113;-70
2022/07/11 10:12:46;;;;;;;1.38;0.52;;;;;;;25.02;31.26;100553.50;5033189;28;20056;-70
2022/07/11 10:15:15;;;;;;;2.28;0.60;;;;;;;25.04;31.60;100545.88;5033139;28;20035;-70
2022/07/11 10:18:15;;;;;;;5.28;0.80;;;;;;;24.99;32.49;100556.66;5033070;28;20044;-71
2022/07/11 10:21:12;;;;;;;2.83;0.70;;;;;;;25.04;32.07;100548.63;5028450;28;20034;-71
2022/07/11 10:24:16;;;;;;;3.10;0.77;;;;;;;24.86;32.24;100554.03;5032777;28;20025;-70
2022/07/11 10:26:57;;;;;;;6.87;1.17;;;;;;;24.74;32.69;100549.47;5032772;28;20029;-70
2022/07/11 10:29:53;;;;;;;2.38;0.93;;;;;;;24.69;32.71;100541.06;5032630;28;20070;-72
2022/07/11 10:32:19;;;;;;;1.27;0.65;;;;;;;24.77;32.86;100544.41;5032753;28;20035;-71
2022/07/11 10:34:46;;;;;;;5.97;0.90;;;;;;;24.78;31.88;100535.09;5034383;28;20484;-70
2022/07/11 10:37:13;;;;;;;7.32;1.15;;;;;;;24.96;31.69;100539.81;5033337;28;20708;-71
2022/07/11 10:39:46;;;;;;;2.78;0.77;;;;;;;25.07;31.13;100539.94;5033748;28;20030;-71
2022/07/11 10:42:19;;;;;;;4.13;0.90;;;;;;;24.98;31.25;100522.06;5033185;28;20047;-70
2022/07/11 10:44:51;;;;;;;4.68;1.10;;;;;;;25.20;31.38;100533.50;5033150;28;20510;-70
2022/07/11 10:47:35;;;;;;;3.45;0.93;;;;;;;25.24;30.59;100534.75;5033451;28;20435;-70
2022/07/11 10:50:07;;;;;;;2.63;0.70;;;;;;;25.13;31.16;100539.06;5033138;28;20026;-69
2022/07/11 10:52:36;;;;;;;3.25;0.82;;;;;;;25.07;30.71;100536.34;5032648;28;20045;-70
2022/07/11 10:55:05;;;;;;;2.40;0.88;;;;;;;25.00;31.11;100533.66;5032865;28;20523;-71
2022/07/11 10:57:49;;;;;;;3.83;0.75;;;;;;;24.89;31.40;100526.13;5032487;28;20550;-70
2022/07/11 11:00:19;;;;;;;4.07;0.90;;;;;;;25.01;31.68;100527.09;5032522;28;20029;-70
2022/07/11 11:03:01;;;;;;;2.40;0.70;;;;;;;25.09;31.90;100542.47;5032395;28;20068;-70
2022/07/11 11:05:44;;;;;;;4.78;0.90;;;;;;;25.08;31.91;100533.38;5032340;28;20017;-70
2022/07/11 11:08:38;;;;;;;4.82;1.10;;;;;;;25.18;30.47;100541.13;5032303;28;20489;-70
2022/07/11 11:11:05;;;;;;;4.80;0.80;;;;;;;25.31;29.05;100535.56;5032396;28;20116;-70
2022/07/11 11:13:33;;;;;;;3.00;0.70;;;;;;;25.21;29.38;100529.72;5032030;28;20099;-70
2022/07/11 11:16:00;;;;;;;1.58;0.70;;;;;;;25.27;29.35;100529.63;5032102;28;20403;-70
2022/07/11 11:18:25;;;;;;;2.58;0.63;;;;;;;25.27;29.63;100528.78;5032111;28;20436;-70
2022/07/11 11:21:02;;;;;;;4.80;0.80;;;;;;;25.25;29.81;100518.06;5031940;28;20029;-70
2022/07/11 11:23:30;;;;;;;1.35;0.60;;;;;;;25.26;29.89;100521.63;5031991;28;20099;-69
2022/07/11 11:26:13;;;;;;;3.53;0.70;;;;;;;25.28;29.54;100517.56;5031862;28;20033;-70
2022/07/11 11:28:59;;;;;;;2.10;0.87;;;;;;;25.25;28.90;100518.06;5031829;28;20032;-70
2022/07/11 11:31:25;;;;;;;5.90;1.13;;;;;;;25.32;28.80;100521.63;5031673;28;20033;-71
2022/07/11 11:33:51;;;;;;;7.13;1.13;;;;;;;25.12;29.11;100509.09;5031804;28;20025;-70